createdAt,value
2019-01-29T00:00:04.990Z,0.70
2019-01-29T00:01:04.418Z,0.70
2019-01-29T00:02:04.555Z,0.70
2019-01-29T00:03:04.746Z,0.70
2019-01-29T00:04:04.387Z,0.70
2019-01-29T00:05:04.534Z,0.70
2019-01-29T00:06:04.634Z,0.70
2019-01-29T00:07:04.797Z,0.70
2019-01-29T00:08:04.440Z,0.70
2019-01-29T00:09:04.840Z,0.70
2019-01-29T00:10:04.872Z,0.70
2019-01-29T00:11:05.134Z,0.70
2019-01-29T00:12:05.195Z,0.70
2019-01-29T00:13:04.566Z,0.70
2019-01-29T00:14:04.954Z,0.70
2019-01-29T00:15:05.131Z,0.70
2019-01-29T00:16:05.270Z,0.70
2019-01-29T00:17:04.664Z,0.70
2019-01-29T00:18:04.363Z,0.70
2019-01-29T00:19:04.581Z,0.70
2019-01-29T00:20:04.705Z,0.70
2019-01-29T00:21:04.283Z,0.60
2019-01-29T00:22:04.791Z,0.60
2019-01-29T00:23:05.161Z,0.60
2019-01-29T00:24:04.726Z,0.60
2019-01-29T00:25:05.091Z,0.60
2019-01-29T00:26:05.128Z,0.60
2019-01-29T00:27:04.514Z,0.60
2019-01-29T00:28:04.671Z,0.60
2019-01-29T00:29:10.328Z,0.60
2019-01-29T00:30:04.850Z,0.60
2019-01-29T00:31:04.815Z,0.60
2019-01-29T00:32:04.946Z,0.60
2019-01-29T00:33:04.211Z,0.60
2019-01-29T00:34:04.572Z,0.60
2019-01-29T00:35:04.689Z,0.60
2019-01-29T00:36:04.415Z,0.60
2019-01-29T00:37:04.532Z,0.60
2019-01-29T00:38:04.848Z,0.60
2019-01-29T00:39:05.147Z,0.60
2019-01-29T00:40:04.603Z,0.60
2019-01-29T00:41:04.636Z,0.60
2019-01-29T00:42:04.438Z,0.60
2019-01-29T00:43:04.434Z,0.60
2019-01-29T00:44:04.556Z,0.60
2019-01-29T00:45:04.643Z,0.60
2019-01-29T00:46:04.642Z,0.60
2019-01-29T00:47:04.754Z,0.60
2019-01-29T00:48:05.018Z,0.60
2019-01-29T00:49:05.158Z,0.60
2019-01-29T00:50:04.701Z,0.60
2019-01-29T00:51:04.786Z,0.60
2019-01-29T00:52:04.920Z,0.60
2019-01-29T00:53:05.107Z,0.60
2019-01-29T00:54:04.522Z,0.60
2019-01-29T00:55:05.159Z,0.60
2019-01-29T00:56:04.394Z,0.60
2019-01-29T00:57:04.330Z,0.60
2019-01-29T00:58:04.336Z,0.50
2019-01-29T00:59:04.504Z,0.50
2019-01-29T01:00:04.618Z,0.50
2019-01-29T01:01:05.210Z,0.50
2019-01-29T01:02:04.393Z,0.50
2019-01-29T01:03:05.113Z,0.50
2019-01-29T01:04:04.589Z,0.50
2019-01-29T01:05:04.886Z,0.50
2019-01-29T01:06:04.909Z,0.50
2019-01-29T01:07:05.097Z,0.50
2019-01-29T01:08:05.158Z,0.50
2019-01-29T01:09:04.687Z,0.50
2019-01-29T01:10:05.211Z,0.50
2019-01-29T01:11:04.517Z,0.50
2019-01-29T01:12:04.533Z,0.40
2019-01-29T01:13:05.098Z,0.40
2019-01-29T01:14:04.334Z,0.40
2019-01-29T01:15:04.569Z,0.40
2019-01-29T01:16:04.769Z,0.40
2019-01-29T01:17:04.912Z,0.40
2019-01-29T01:18:05.056Z,0.40
2019-01-29T01:19:05.104Z,0.40
2019-01-29T01:20:05.111Z,0.40
2019-01-29T01:21:04.850Z,0.30
2019-01-29T01:22:04.224Z,0.40
2019-01-29T01:23:04.798Z,0.30
2019-01-29T01:24:04.607Z,0.30
2019-01-29T01:25:04.769Z,0.30
2019-01-29T01:26:04.795Z,0.30
2019-01-29T01:27:05.021Z,0.30
2019-01-29T01:28:04.303Z,0.30
2019-01-29T01:29:09.439Z,0.30
2019-01-29T01:30:04.801Z,0.20
2019-01-29T01:31:05.106Z,0.20
2019-01-29T01:32:05.265Z,0.30
2019-01-29T01:33:04.190Z,0.30
2019-01-29T01:34:04.411Z,0.20
2019-01-29T01:35:04.423Z,0.20
2019-01-29T01:36:04.991Z,0.20
2019-01-29T01:37:04.319Z,0.20
2019-01-29T01:38:04.451Z,0.20
2019-01-29T01:39:04.464Z,0.20
2019-01-29T01:40:04.685Z,0.20
2019-01-29T01:41:04.614Z,0.20
2019-01-29T01:42:05.022Z,0.20
2019-01-29T01:43:04.457Z,0.20
2019-01-29T01:44:04.797Z,0.20
2019-01-29T01:45:05.104Z,0.20
2019-01-29T01:46:04.262Z,0.20
2019-01-29T01:47:04.659Z,0.20
2019-01-29T01:48:05.235Z,0.20
2019-01-29T01:49:09.638Z,0.20
2019-01-29T01:50:05.093Z,0.20
2019-01-29T01:51:04.428Z,0.10
2019-01-29T01:52:04.467Z,0.10
2019-01-29T01:53:04.877Z,0.10
2019-01-29T01:54:04.255Z,0.10
2019-01-29T01:55:04.797Z,0.10
2019-01-29T01:56:04.978Z,0.00
2019-01-29T01:57:04.533Z,0.00
2019-01-29T01:58:04.666Z,0.00
2019-01-29T01:59:04.392Z,0.00
2019-01-29T02:00:04.739Z,0.00
2019-01-29T02:01:04.843Z,0.00
2019-01-29T02:02:05.124Z,0.00
2019-01-29T02:03:04.325Z,0.00
2019-01-29T02:04:04.425Z,0.00
2019-01-29T02:05:04.874Z,0.00
2019-01-29T02:06:05.113Z,0.00
2019-01-29T02:07:04.366Z,0.00
2019-01-29T02:08:04.588Z,0.00
2019-01-29T02:09:04.897Z,0.00
2019-01-29T02:10:05.109Z,0.00
2019-01-29T02:11:04.454Z,0.00
2019-01-29T02:12:04.587Z,0.00
2019-01-29T02:13:04.970Z,0.00
2019-01-29T02:14:04.668Z,0.00
2019-01-29T02:15:04.779Z,0.00
2019-01-29T02:16:04.946Z,0.00
2019-01-29T02:17:04.996Z,0.00
2019-01-29T02:18:04.489Z,0.00
2019-01-29T02:19:04.622Z,0.00
2019-01-29T02:20:04.800Z,0.00
2019-01-29T02:21:05.106Z,0.00
2019-01-29T02:22:04.473Z,0.00
2019-01-29T02:23:07.957Z,0.00
2019-01-29T02:24:05.085Z,0.00
2019-01-29T02:25:04.255Z,0.00
2019-01-29T02:26:04.452Z,0.00
2019-01-29T02:27:04.796Z,0.00
2019-01-29T02:28:04.839Z,0.00
2019-01-29T02:29:10.089Z,0.00
2019-01-29T02:30:04.449Z,0.00
2019-01-29T02:31:04.642Z,0.00
2019-01-29T02:32:05.190Z,0.00
2019-01-29T02:33:04.802Z,0.00
2019-01-29T02:34:04.809Z,0.00
2019-01-29T02:35:04.400Z,0.00
2019-01-29T02:36:04.840Z,0.00
2019-01-29T02:37:04.440Z,0.00
2019-01-29T02:38:04.249Z,0.00
2019-01-29T02:39:04.741Z,0.00
2019-01-29T02:40:04.436Z,0.00
2019-01-29T02:41:04.911Z,0.00
2019-01-29T02:42:04.801Z,0.00
2019-01-29T02:43:04.746Z,0.00
2019-01-29T02:44:04.796Z,0.00
2019-01-29T02:45:05.050Z,0.00
2019-01-29T02:46:05.143Z,0.00
2019-01-29T02:47:04.800Z,0.00
2019-01-29T02:48:04.811Z,0.00
2019-01-29T02:49:04.389Z,0.00
2019-01-29T02:50:04.843Z,0.00
2019-01-29T02:51:04.329Z,0.00
2019-01-29T02:52:04.594Z,0.00
2019-01-29T02:53:05.035Z,0.00
2019-01-29T02:54:04.914Z,0.00
2019-01-29T02:55:04.323Z,0.00
2019-01-29T02:56:04.749Z,0.00
2019-01-29T02:57:05.140Z,0.00
2019-01-29T02:58:04.273Z,0.00
2019-01-29T02:59:04.946Z,-0.10
2019-01-29T03:00:04.426Z,0.00
2019-01-29T03:01:04.515Z,0.00
2019-01-29T03:02:04.723Z,0.00
2019-01-29T03:03:04.817Z,0.00
2019-01-29T03:04:04.963Z,0.00
2019-01-29T03:05:05.102Z,-0.10
2019-01-29T03:06:04.273Z,-0.10
2019-01-29T03:07:04.846Z,-0.10
2019-01-29T03:08:04.391Z,-0.10
2019-01-29T03:09:04.974Z,-0.10
2019-01-29T03:10:04.415Z,-0.10
2019-01-29T03:11:04.789Z,-0.10
2019-01-29T03:12:04.897Z,-0.10
2019-01-29T03:13:04.298Z,-0.10
2019-01-29T03:14:05.154Z,-0.10
2019-01-29T03:15:04.436Z,-0.10
2019-01-29T03:16:05.164Z,-0.10
2019-01-29T03:17:04.205Z,-0.10
2019-01-29T03:18:04.339Z,-0.10
2019-01-29T03:19:04.409Z,0.00
2019-01-29T03:20:04.717Z,-0.10
2019-01-29T03:21:04.346Z,-0.10
2019-01-29T03:22:04.737Z,-0.10
2019-01-29T03:23:05.077Z,-0.10
2019-01-29T03:24:04.530Z,-0.10
2019-01-29T03:25:04.529Z,-0.10
2019-01-29T03:26:04.616Z,-0.10
2019-01-29T03:27:04.218Z,-0.10
2019-01-29T03:28:04.515Z,-0.10
2019-01-29T03:29:09.435Z,-0.10
2019-01-29T03:30:04.775Z,-0.10
2019-01-29T03:31:04.301Z,-0.10
2019-01-29T03:32:04.568Z,-0.10
2019-01-29T03:33:04.592Z,-0.10
2019-01-29T03:34:04.373Z,-0.10
2019-01-29T03:35:04.366Z,-0.10
2019-01-29T03:36:05.326Z,-0.10
2019-01-29T03:37:04.727Z,-0.10
2019-01-29T03:38:05.202Z,-0.10
2019-01-29T03:39:04.346Z,-0.10
2019-01-29T03:40:04.991Z,-0.10
2019-01-29T03:41:04.462Z,-0.10
2019-01-29T03:42:04.447Z,-0.10
2019-01-29T03:43:05.046Z,-0.10
2019-01-29T03:44:04.517Z,-0.10
2019-01-29T03:45:04.458Z,-0.20
2019-01-29T03:46:04.523Z,-0.20
2019-01-29T03:47:04.605Z,-0.10
2019-01-29T03:48:05.095Z,-0.20
2019-01-29T03:49:09.284Z,-0.10
2019-01-29T03:50:04.806Z,-0.20
2019-01-29T03:51:05.076Z,-0.20
2019-01-29T03:52:05.222Z,-0.10
2019-01-29T03:53:04.210Z,-0.20
2019-01-29T03:54:04.862Z,-0.20
2019-01-29T03:55:04.351Z,-0.20
2019-01-29T03:56:04.413Z,-0.20
2019-01-29T03:57:04.379Z,-0.20
2019-01-29T03:58:04.598Z,-0.20
2019-01-29T03:59:04.211Z,-0.20
2019-01-29T04:00:05.160Z,-0.20
2019-01-29T04:01:04.285Z,-0.20
2019-01-29T04:02:04.847Z,-0.20
2019-01-29T04:03:04.463Z,-0.20
2019-01-29T04:04:04.690Z,-0.20
2019-01-29T04:05:05.160Z,-0.20
2019-01-29T04:06:04.250Z,-0.20
2019-01-29T04:07:04.262Z,-0.20
2019-01-29T04:08:04.909Z,-0.20
2019-01-29T04:09:05.012Z,-0.20
2019-01-29T04:10:05.095Z,-0.20
2019-01-29T04:11:04.248Z,-0.20
2019-01-29T04:12:04.692Z,-0.20
2019-01-29T04:13:05.146Z,-0.20
2019-01-29T04:14:04.334Z,-0.20
2019-01-29T04:15:04.580Z,-0.20
2019-01-29T04:16:04.671Z,-0.20
2019-01-29T04:17:05.011Z,-0.20
2019-01-29T04:18:04.758Z,-0.20
2019-01-29T04:19:04.868Z,-0.20
2019-01-29T04:20:04.949Z,-0.20
2019-01-29T04:21:05.015Z,-0.20
2019-01-29T04:22:05.118Z,-0.20
2019-01-29T04:23:04.263Z,-0.20
2019-01-29T04:24:04.380Z,-0.20
2019-01-29T04:25:04.909Z,-0.20
2019-01-29T04:26:05.019Z,-0.20
2019-01-29T04:27:04.612Z,-0.20
2019-01-29T04:28:04.651Z,-0.20
2019-01-29T04:29:05.032Z,-0.20
2019-01-29T04:30:05.080Z,-0.20
2019-01-29T04:31:04.438Z,-0.20
2019-01-29T04:32:04.564Z,-0.20
2019-01-29T04:33:04.682Z,-0.20
2019-01-29T04:34:05.202Z,-0.20
2019-01-29T04:35:09.838Z,-0.20
2019-01-29T04:36:04.261Z,-0.20
2019-01-29T04:37:04.677Z,-0.20
2019-01-29T04:38:04.998Z,-0.20
2019-01-29T04:39:05.309Z,-0.20
2019-01-29T04:40:04.650Z,-0.20
2019-01-29T04:41:04.715Z,-0.20
2019-01-29T04:42:04.842Z,-0.20
2019-01-29T04:43:04.457Z,-0.20
2019-01-29T04:44:04.434Z,-0.20
2019-01-29T04:45:04.374Z,-0.20
2019-01-29T04:46:04.323Z,-0.20
2019-01-29T04:47:04.452Z,-0.20
2019-01-29T04:48:05.037Z,-0.20
2019-01-29T04:49:04.344Z,-0.20
2019-01-29T04:50:04.831Z,-0.20
2019-01-29T04:51:05.002Z,-0.20
2019-01-29T04:52:04.181Z,-0.20
2019-01-29T04:53:04.800Z,-0.20
2019-01-29T04:54:04.937Z,-0.20
2019-01-29T04:55:04.470Z,-0.20
2019-01-29T04:56:04.716Z,-0.20
2019-01-29T04:57:04.388Z,-0.20
2019-01-29T04:58:04.450Z,-0.20
2019-01-29T04:59:05.164Z,-0.20
2019-01-29T05:00:04.270Z,-0.20
2019-01-29T05:01:04.843Z,-0.10
2019-01-29T05:02:04.278Z,-0.20
2019-01-29T05:03:04.383Z,-0.10
2019-01-29T05:04:04.980Z,-0.20
2019-01-29T05:05:04.518Z,-0.10
2019-01-29T05:06:05.104Z,-0.20
2019-01-29T05:07:04.303Z,-0.10
2019-01-29T05:08:04.526Z,-0.10
2019-01-29T05:09:04.306Z,-0.10
2019-01-29T05:10:04.295Z,-0.10
2019-01-29T05:11:04.352Z,-0.10
2019-01-29T05:12:04.712Z,-0.10
2019-01-29T05:13:04.746Z,-0.10
2019-01-29T05:14:04.785Z,-0.10
2019-01-29T05:15:04.900Z,-0.10
2019-01-29T05:16:05.133Z,-0.10
2019-01-29T05:17:04.732Z,-0.10
2019-01-29T05:18:04.823Z,-0.10
2019-01-29T05:19:04.864Z,-0.10
2019-01-29T05:20:04.946Z,-0.10
2019-01-29T05:21:05.163Z,-0.10
2019-01-29T05:22:04.491Z,-0.10
2019-01-29T05:23:04.802Z,-0.10
2019-01-29T05:24:06.748Z,-0.10
2019-01-29T05:25:05.371Z,-0.10
2019-01-29T05:26:04.815Z,-0.10
2019-01-29T05:27:05.136Z,-0.20
2019-01-29T05:28:05.287Z,-0.10
2019-01-29T05:29:09.383Z,-0.10
2019-01-29T05:30:04.797Z,-0.10
2019-01-29T05:31:04.982Z,-0.10
2019-01-29T05:32:05.079Z,-0.20
2019-01-29T05:33:04.683Z,-0.20
2019-01-29T05:34:05.062Z,-0.20
2019-01-29T05:35:05.196Z,-0.20
2019-01-29T05:36:04.601Z,-0.20
2019-01-29T05:37:04.715Z,-0.20
2019-01-29T05:38:04.323Z,-0.20
2019-01-29T05:39:04.803Z,-0.20
2019-01-29T05:40:04.828Z,-0.20
2019-01-29T05:41:04.958Z,-0.30
2019-01-29T05:42:05.011Z,-0.30
2019-01-29T05:43:04.292Z,-0.30
2019-01-29T05:44:04.323Z,-0.30
2019-01-29T05:45:04.894Z,-0.30
2019-01-29T05:46:04.185Z,-0.30
2019-01-29T05:47:04.506Z,-0.40
2019-01-29T05:48:04.520Z,-0.40
2019-01-29T05:49:09.841Z,-0.40
2019-01-29T05:50:04.208Z,-0.40
2019-01-29T05:51:04.807Z,-0.40
2019-01-29T05:52:04.343Z,-0.40
2019-01-29T05:53:04.846Z,-0.40
2019-01-29T05:54:05.124Z,-0.40
2019-01-29T05:55:04.962Z,-0.40
2019-01-29T05:56:04.390Z,-0.50
2019-01-29T05:57:04.366Z,-0.50
2019-01-29T05:58:04.808Z,-0.50
2019-01-29T05:59:04.888Z,-0.50
2019-01-29T06:00:04.454Z,-0.50
2019-01-29T06:01:04.514Z,-0.50
2019-01-29T06:02:04.676Z,-0.50
2019-01-29T06:03:04.917Z,-0.50
2019-01-29T06:04:04.426Z,-0.60
2019-01-29T06:05:04.491Z,-0.60
2019-01-29T06:06:05.050Z,-0.60
2019-01-29T06:07:04.253Z,-0.60
2019-01-29T06:08:05.203Z,-0.60
2019-01-29T06:09:05.180Z,-0.60
2019-01-29T06:10:04.373Z,-0.70
2019-01-29T06:11:04.713Z,-0.70
2019-01-29T06:12:04.761Z,-0.70
2019-01-29T06:13:04.450Z,-0.70
2019-01-29T06:14:04.992Z,-0.80
2019-01-29T06:15:04.468Z,-0.80
2019-01-29T06:16:04.562Z,-0.80
2019-01-29T06:17:05.053Z,-0.80
2019-01-29T06:18:05.300Z,-0.80
2019-01-29T06:19:04.796Z,-0.80
2019-01-29T06:20:04.592Z,-0.80
2019-01-29T06:21:04.466Z,-0.80
2019-01-29T06:22:04.306Z,-0.80
2019-01-29T06:23:04.294Z,-0.80
2019-01-29T06:24:05.011Z,-0.80
2019-01-29T06:25:05.153Z,-0.80
2019-01-29T06:26:04.492Z,-0.80
2019-01-29T06:27:04.837Z,-0.90
2019-01-29T06:28:04.943Z,-0.90
2019-01-29T06:29:09.325Z,-0.90
2019-01-29T06:30:04.711Z,-0.90
2019-01-29T06:31:04.821Z,-0.90
2019-01-29T06:32:04.280Z,-0.90
2019-01-29T06:33:04.561Z,-0.90
2019-01-29T06:34:04.758Z,-0.90
2019-01-29T06:35:04.648Z,-0.90
2019-01-29T06:36:04.794Z,-0.90
2019-01-29T06:37:04.780Z,-0.90
2019-01-29T06:38:05.050Z,-0.90
2019-01-29T06:39:04.656Z,-0.90
2019-01-29T06:40:04.361Z,-0.90
2019-01-29T06:41:04.643Z,-0.90
2019-01-29T06:42:05.143Z,-0.90
2019-01-29T06:43:04.260Z,-0.90
2019-01-29T06:44:04.488Z,-0.90
2019-01-29T06:45:04.860Z,-0.90
2019-01-29T06:46:04.208Z,-0.90
2019-01-29T06:47:04.457Z,-0.90
2019-01-29T06:48:05.012Z,-0.80
2019-01-29T06:49:09.707Z,-0.80
2019-01-29T06:50:05.082Z,-0.80
2019-01-29T06:51:04.813Z,-0.80
2019-01-29T06:52:04.995Z,-0.80
2019-01-29T06:53:04.531Z,-0.80
2019-01-29T06:54:04.725Z,-0.80
2019-01-29T06:55:04.801Z,-0.80
2019-01-29T06:56:05.017Z,-0.80
2019-01-29T06:57:05.107Z,-0.80
2019-01-29T06:58:04.308Z,-0.80
2019-01-29T06:59:04.388Z,-0.80
2019-01-29T07:00:04.625Z,-0.80
2019-01-29T07:01:05.086Z,-0.80
2019-01-29T07:02:05.251Z,-0.80
2019-01-29T07:03:04.467Z,-0.80
2019-01-29T07:04:05.171Z,-0.80
2019-01-29T07:05:04.619Z,-0.80
2019-01-29T07:06:05.098Z,-0.80
2019-01-29T07:07:04.324Z,-0.80
2019-01-29T07:08:04.437Z,-0.80
2019-01-29T07:09:04.627Z,-0.70
2019-01-29T07:10:05.010Z,-0.70
2019-01-29T07:11:04.465Z,-0.70
2019-01-29T07:12:04.632Z,-0.70
2019-01-29T07:13:04.665Z,-0.70
2019-01-29T07:14:05.184Z,-0.70
2019-01-29T07:15:04.321Z,-0.70
2019-01-29T07:16:04.624Z,-0.70
2019-01-29T07:17:05.266Z,-0.60
2019-01-29T07:18:04.412Z,-0.60
2019-01-29T07:19:04.425Z,-0.60
2019-01-29T07:20:04.685Z,-0.60
2019-01-29T07:21:04.735Z,-0.60
2019-01-29T07:22:04.894Z,-0.60
2019-01-29T07:23:04.528Z,-0.60
2019-01-29T07:24:05.006Z,-0.60
2019-01-29T07:25:04.533Z,-0.60
2019-01-29T07:26:04.856Z,-0.50
2019-01-29T07:27:04.285Z,-0.50
2019-01-29T07:28:04.683Z,-0.50
2019-01-29T07:29:09.456Z,-0.50
2019-01-29T07:30:04.781Z,-0.50
2019-01-29T07:31:04.460Z,-0.50
2019-01-29T07:32:04.523Z,-0.50
2019-01-29T07:33:04.691Z,-0.50
2019-01-29T07:34:05.307Z,-0.40
2019-01-29T07:35:04.697Z,-0.40
2019-01-29T07:36:04.471Z,-0.40
2019-01-29T07:37:04.827Z,-0.40
2019-01-29T07:38:04.866Z,-0.40
2019-01-29T07:39:05.066Z,-0.40
2019-01-29T07:40:05.331Z,-0.30
2019-01-29T07:41:04.759Z,-0.30
2019-01-29T07:42:04.898Z,-0.30
2019-01-29T07:43:04.374Z,-0.30
2019-01-29T07:44:05.129Z,-0.30
2019-01-29T07:45:04.716Z,-0.30
2019-01-29T07:46:04.847Z,-0.30
2019-01-29T07:47:04.968Z,-0.20
2019-01-29T07:48:04.319Z,-0.20
2019-01-29T07:49:04.734Z,-0.20
2019-01-29T07:50:04.453Z,-0.20
2019-01-29T07:51:04.568Z,-0.20
2019-01-29T07:52:04.822Z,-0.20
2019-01-29T07:53:05.065Z,-0.20
2019-01-29T07:54:04.669Z,-0.10
2019-01-29T07:55:04.206Z,-0.10
2019-01-29T07:56:04.414Z,-0.10
2019-01-29T07:57:04.475Z,-0.10
2019-01-29T07:58:04.499Z,-0.10
2019-01-29T07:59:04.192Z,-0.10
2019-01-29T08:00:09.974Z,-0.10
2019-01-29T08:01:04.363Z,0.00
2019-01-29T08:02:04.534Z,0.00
2019-01-29T08:03:04.610Z,0.00
2019-01-29T08:04:04.829Z,0.00
2019-01-29T08:05:04.505Z,0.00
2019-01-29T08:06:04.752Z,0.00
2019-01-29T08:07:04.868Z,0.00
2019-01-29T08:08:04.411Z,0.10
2019-01-29T08:09:04.612Z,0.10
2019-01-29T08:10:04.417Z,0.10
2019-01-29T08:11:04.768Z,0.10
2019-01-29T08:12:04.978Z,0.10
2019-01-29T08:13:04.538Z,0.10
2019-01-29T08:14:05.187Z,0.20
2019-01-29T08:15:04.235Z,0.20
2019-01-29T08:16:04.404Z,0.20
2019-01-29T08:17:04.565Z,0.20
2019-01-29T08:18:04.748Z,0.20
2019-01-29T08:19:04.982Z,0.20
2019-01-29T08:20:05.238Z,0.20
2019-01-29T08:21:05.157Z,0.30
2019-01-29T08:22:05.238Z,0.30
2019-01-29T08:23:04.378Z,0.30
2019-01-29T08:24:05.121Z,0.30
2019-01-29T08:25:04.846Z,0.30
2019-01-29T08:26:04.256Z,0.30
2019-01-29T08:27:04.692Z,0.40
2019-01-29T08:28:05.047Z,0.40
2019-01-29T08:29:10.088Z,0.40
2019-01-29T08:30:04.526Z,0.40
2019-01-29T08:31:05.125Z,0.40
2019-01-29T08:32:05.126Z,0.40
2019-01-29T08:33:04.328Z,0.50
2019-01-29T08:34:04.526Z,0.50
2019-01-29T08:35:04.870Z,0.50
2019-01-29T08:36:05.116Z,0.50
2019-01-29T08:37:04.739Z,0.60
2019-01-29T08:38:04.901Z,0.60
2019-01-29T08:39:04.277Z,0.60
2019-01-29T08:40:04.516Z,0.60
2019-01-29T08:41:04.583Z,0.70
2019-01-29T08:42:05.062Z,0.70
2019-01-29T08:43:05.234Z,0.70
2019-01-29T08:44:04.300Z,0.70
2019-01-29T08:45:04.384Z,0.70
2019-01-29T08:46:04.593Z,0.80
2019-01-29T08:47:05.060Z,0.80
2019-01-29T08:48:05.142Z,0.80
2019-01-29T08:49:04.363Z,0.80
2019-01-29T08:50:04.367Z,0.90
2019-01-29T08:51:04.535Z,0.90
2019-01-29T08:52:05.077Z,0.90
2019-01-29T08:53:04.398Z,0.90
2019-01-29T08:54:04.684Z,0.90
2019-01-29T08:55:10.435Z,0.90
2019-01-29T08:56:04.556Z,1.00
2019-01-29T08:57:04.822Z,1.00
2019-01-29T08:58:04.981Z,1.00
2019-01-29T08:59:04.429Z,1.00
2019-01-29T09:00:05.060Z,1.10
2019-01-29T09:01:04.726Z,1.10
2019-01-29T09:02:05.001Z,1.10
2019-01-29T09:03:04.920Z,1.10
2019-01-29T09:04:04.362Z,1.20
2019-01-29T09:05:04.381Z,1.20
2019-01-29T09:06:04.440Z,1.20
2019-01-29T09:07:04.574Z,1.20
2019-01-29T09:08:10.267Z,1.30
2019-01-29T09:09:04.789Z,1.30
2019-01-29T09:10:04.884Z,1.30
2019-01-29T09:11:04.918Z,1.30
2019-01-29T09:12:05.134Z,1.40
2019-01-29T09:13:04.753Z,1.40
2019-01-29T09:14:04.932Z,1.40
2019-01-29T09:15:04.631Z,1.50
2019-01-29T09:16:04.748Z,1.50
2019-01-29T09:17:05.067Z,1.50
2019-01-29T09:18:05.287Z,1.50
2019-01-29T09:19:04.169Z,1.60
2019-01-29T09:20:04.565Z,1.60
2019-01-29T09:21:04.579Z,1.60
2019-01-29T09:22:04.772Z,1.60
2019-01-29T09:23:05.131Z,1.60
2019-01-29T09:24:05.046Z,1.70
2019-01-29T09:25:04.996Z,1.70
2019-01-29T09:26:04.388Z,1.70
2019-01-29T09:27:04.687Z,1.70
2019-01-29T09:28:05.083Z,1.70
2019-01-29T09:29:17.431Z,1.80
2019-01-29T09:30:05.171Z,1.80
2019-01-29T09:31:04.259Z,1.80
2019-01-29T09:32:05.075Z,1.80
2019-01-29T09:33:05.181Z,1.80
2019-01-29T09:34:04.383Z,1.90
2019-01-29T09:35:04.305Z,1.80
2019-01-29T09:36:04.623Z,1.90
2019-01-29T09:37:04.664Z,1.90
2019-01-29T09:38:05.086Z,1.90
2019-01-29T09:39:04.266Z,1.90
2019-01-29T09:40:04.339Z,1.90
2019-01-29T09:41:04.439Z,1.90
2019-01-29T09:42:04.555Z,1.90
2019-01-29T09:43:04.787Z,1.90
2019-01-29T09:44:05.246Z,2.00
2019-01-29T09:45:04.217Z,2.00
2019-01-29T09:46:04.806Z,2.00
2019-01-29T09:47:04.544Z,2.00
2019-01-29T09:48:04.734Z,2.00
2019-01-29T09:49:11.267Z,2.00
2019-01-29T09:50:04.972Z,2.00
2019-01-29T09:51:04.384Z,2.00
2019-01-29T09:52:04.619Z,2.00
2019-01-29T09:53:05.060Z,2.00
2019-01-29T09:54:05.064Z,2.00
2019-01-29T09:55:04.574Z,2.00
2019-01-29T09:56:04.580Z,2.10
2019-01-29T09:57:04.815Z,2.10
2019-01-29T09:58:04.817Z,2.10
2019-01-29T09:59:04.522Z,2.10
2019-01-29T10:00:04.460Z,2.10
2019-01-29T10:01:04.661Z,2.10
2019-01-29T10:02:05.055Z,2.10
2019-01-29T10:03:04.284Z,2.10
2019-01-29T10:04:04.797Z,2.10
2019-01-29T10:05:04.908Z,2.10
2019-01-29T10:06:04.550Z,2.10
2019-01-29T10:07:05.086Z,2.20
2019-01-29T10:08:05.200Z,2.20
2019-01-29T10:09:04.444Z,2.20
2019-01-29T10:10:04.955Z,2.20
2019-01-29T10:11:04.887Z,2.30
2019-01-29T10:12:04.340Z,2.30
2019-01-29T10:13:04.295Z,2.30
2019-01-29T10:14:05.027Z,2.30
2019-01-29T10:15:04.459Z,2.30
2019-01-29T10:16:05.183Z,2.30
2019-01-29T10:17:04.356Z,2.30
2019-01-29T10:18:04.456Z,2.30
2019-01-29T10:19:05.037Z,2.30
2019-01-29T10:20:04.275Z,2.30
2019-01-29T10:21:04.311Z,2.30
2019-01-29T10:22:04.434Z,2.30
2019-01-29T10:23:04.558Z,2.30
2019-01-29T10:24:04.977Z,2.30
2019-01-29T10:25:04.358Z,2.30
2019-01-29T10:26:05.034Z,2.30
2019-01-29T10:27:05.182Z,2.30
2019-01-29T10:28:04.212Z,2.30
2019-01-29T10:29:09.904Z,2.30
2019-01-29T10:30:04.309Z,2.30
2019-01-29T10:31:04.618Z,2.30
2019-01-29T10:32:04.358Z,2.30
2019-01-29T10:33:04.545Z,2.30
2019-01-29T10:34:05.030Z,2.30
2019-01-29T10:35:04.451Z,2.30
2019-01-29T10:36:04.617Z,2.30
2019-01-29T10:37:04.740Z,2.40
2019-01-29T10:38:05.037Z,2.40
2019-01-29T10:39:04.705Z,2.40
2019-01-29T10:40:04.874Z,2.40
2019-01-29T10:41:04.981Z,2.40
2019-01-29T10:42:05.980Z,2.40
2019-01-29T10:43:04.842Z,2.50
2019-01-29T10:44:04.378Z,2.50
2019-01-29T10:45:04.427Z,2.50
2019-01-29T10:46:04.562Z,2.50
2019-01-29T10:47:04.591Z,2.50
2019-01-29T10:48:04.828Z,2.50
2019-01-29T10:49:04.854Z,2.60
2019-01-29T10:50:05.048Z,2.60
2019-01-29T10:51:05.219Z,2.60
2019-01-29T10:52:04.311Z,2.60
2019-01-29T10:53:04.659Z,2.60
2019-01-29T10:54:04.312Z,2.60
2019-01-29T10:55:04.451Z,2.70
2019-01-29T10:56:04.589Z,2.70
2019-01-29T10:57:04.299Z,2.70
2019-01-29T10:58:04.308Z,2.70
2019-01-29T10:59:04.493Z,2.70
2019-01-29T11:00:04.612Z,2.80
2019-01-29T11:01:04.640Z,2.80
2019-01-29T11:02:04.803Z,2.80
2019-01-29T11:03:04.764Z,2.80
2019-01-29T11:04:04.406Z,2.80
2019-01-29T11:05:05.007Z,2.90
2019-01-29T11:06:05.027Z,2.90
2019-01-29T11:07:04.525Z,2.90
2019-01-29T11:08:10.114Z,2.90
2019-01-29T11:09:04.483Z,2.90
2019-01-29T11:10:04.235Z,2.90
2019-01-29T11:11:04.904Z,2.90
2019-01-29T11:12:04.534Z,3.00
2019-01-29T11:13:04.707Z,3.00
2019-01-29T11:14:04.837Z,3.00
2019-01-29T11:15:04.869Z,3.00
2019-01-29T11:16:05.024Z,3.00
2019-01-29T11:17:05.161Z,3.00
2019-01-29T11:18:04.849Z,3.00
2019-01-29T11:19:04.351Z,3.00
2019-01-29T11:20:04.862Z,3.00
2019-01-29T11:21:04.882Z,3.10
2019-01-29T11:22:05.070Z,3.10
2019-01-29T11:23:05.102Z,3.10
2019-01-29T11:24:04.654Z,3.10
2019-01-29T11:25:04.993Z,3.10
2019-01-29T11:26:05.063Z,3.10
2019-01-29T11:27:05.220Z,3.10
2019-01-29T11:28:04.440Z,3.10
2019-01-29T11:29:09.861Z,3.20
2019-01-29T11:30:04.330Z,3.20
2019-01-29T11:31:04.885Z,3.20
2019-01-29T11:32:04.937Z,3.10
2019-01-29T11:33:05.000Z,3.20
2019-01-29T11:34:04.608Z,3.20
2019-01-29T11:35:04.997Z,3.20
2019-01-29T11:36:05.135Z,3.20
2019-01-29T11:37:04.256Z,3.20
2019-01-29T11:38:05.064Z,3.20
2019-01-29T11:39:04.427Z,3.20
2019-01-29T11:40:04.918Z,3.20
2019-01-29T11:41:04.325Z,3.20
2019-01-29T11:42:04.520Z,3.30
2019-01-29T11:43:04.717Z,3.30
2019-01-29T11:44:04.864Z,3.30
2019-01-29T11:45:04.360Z,3.30
2019-01-29T11:46:04.950Z,3.30
2019-01-29T11:47:04.379Z,3.30
2019-01-29T11:48:04.451Z,3.30
2019-01-29T11:49:04.305Z,3.30
2019-01-29T11:50:04.990Z,3.30
2019-01-29T11:51:04.400Z,3.30
2019-01-29T11:52:04.619Z,3.30
2019-01-29T11:53:04.901Z,3.30
2019-01-29T11:54:05.248Z,3.30
2019-01-29T11:55:05.074Z,3.30
2019-01-29T11:56:05.019Z,3.20
2019-01-29T11:57:04.937Z,3.30
2019-01-29T11:58:05.049Z,3.30
2019-01-29T11:59:05.139Z,3.20
2019-01-29T12:00:04.235Z,3.20
2019-01-29T12:01:04.744Z,3.20
2019-01-29T12:02:04.695Z,3.20
2019-01-29T12:03:05.212Z,3.20
2019-01-29T12:04:04.820Z,3.20
2019-01-29T12:05:04.525Z,3.20
2019-01-29T12:06:04.948Z,3.20
2019-01-29T12:07:04.993Z,3.20
2019-01-29T12:08:05.108Z,3.20
2019-01-29T12:09:05.217Z,3.20
2019-01-29T12:10:04.192Z,3.20
2019-01-29T12:11:04.353Z,3.20
2019-01-29T12:12:05.106Z,3.20
2019-01-29T12:13:04.296Z,3.10
2019-01-29T12:14:04.446Z,3.10
2019-01-29T12:15:04.671Z,3.10
2019-01-29T12:16:04.471Z,3.10
2019-01-29T12:17:04.727Z,3.10
2019-01-29T12:18:04.768Z,3.10
2019-01-29T12:19:04.458Z,3.10
2019-01-29T12:20:04.638Z,3.10
2019-01-29T12:21:04.688Z,3.10
2019-01-29T12:22:04.855Z,3.10
2019-01-29T12:23:04.877Z,3.10
2019-01-29T12:24:04.921Z,3.10
2019-01-29T12:25:04.339Z,3.00
2019-01-29T12:26:12.672Z,3.00
2019-01-29T12:27:04.918Z,3.00
2019-01-29T12:28:04.427Z,3.00
2019-01-29T12:29:10.128Z,3.00
2019-01-29T12:30:04.510Z,3.00
2019-01-29T12:31:04.579Z,3.00
2019-01-29T12:32:04.740Z,3.00
2019-01-29T12:33:04.844Z,3.00
2019-01-29T12:34:04.989Z,2.90
2019-01-29T12:35:05.127Z,2.90
2019-01-29T12:36:05.177Z,2.90
2019-01-29T12:37:04.225Z,2.90
2019-01-29T12:38:04.733Z,2.90
2019-01-29T12:39:04.964Z,2.90
2019-01-29T12:40:05.084Z,2.90
2019-01-29T12:41:05.145Z,2.80
2019-01-29T12:42:04.435Z,2.80
2019-01-29T12:43:04.416Z,2.80
2019-01-29T12:44:04.609Z,2.80
2019-01-29T12:45:05.132Z,2.80
2019-01-29T12:46:04.494Z,2.80
2019-01-29T12:47:04.598Z,2.80
2019-01-29T12:48:04.755Z,2.80
2019-01-29T12:49:04.940Z,2.70
2019-01-29T12:50:09.887Z,2.70
2019-01-29T12:51:04.319Z,2.80
2019-01-29T12:52:04.484Z,2.80
2019-01-29T12:53:04.446Z,2.80
2019-01-29T12:54:04.637Z,2.80
2019-01-29T12:55:05.063Z,2.80
2019-01-29T12:56:04.549Z,2.80
2019-01-29T12:57:04.810Z,2.80
2019-01-29T12:58:05.248Z,2.80
2019-01-29T12:59:05.182Z,2.80
2019-01-29T13:00:04.298Z,2.80
2019-01-29T13:01:04.419Z,2.80
2019-01-29T13:02:04.506Z,2.80
2019-01-29T13:03:05.019Z,2.90
2019-01-29T13:04:05.228Z,2.90
2019-01-29T13:05:04.375Z,2.90
2019-01-29T13:06:04.512Z,2.90
2019-01-29T13:07:04.845Z,2.90
2019-01-29T13:08:04.803Z,2.90